Time,TemperatureF,DewpointF,PressureIn,WindDirection,WindDirectionDegrees,WindSpeedMPH,WindSpeedGustMPH,Humidity,HourlyPrecipIn,Conditions,Clouds,dailyrainin,SolarRadiationWatts/m^2,SoftwareType,DateUTC
2013-02-09 00:01:00,51.0,44.0,-100.00,NE,46,8.0,17.0,76,0.00,,,0.00,0.000000,,2013-02-09 06:01:00,
2013-02-09 00:32:00,50.0,43.0,-100.00,ENE,58,6.0,14.0,78,0.00,,,0.00,0.000000,,2013-02-09 06:32:00,
2013-02-09 00:42:00,50.0,43.0,-100.00,ENE,58,6.0,14.0,78,0.00,,,0.00,0.000000,,2013-02-09 06:42:00,
2013-02-09 00:52:00,50.0,43.0,-100.00,ENE,58,6.0,14.0,78,0.00,,,0.00,0.000000,,2013-02-09 06:52:00,
2013-02-09 01:01:00,50.0,43.0,-100.00,ENE,58,6.0,14.0,78,0.00,,,0.00,0.000000,,2013-02-09 07:01:00,
2013-02-09 01:32:00,46.0,42.0,-100.00,NE,55,5.0,13.0,86,0.00,,,0.00,0.000000,,2013-02-09 07:32:00,
2013-02-09 01:42:00,46.0,42.0,-100.00,NE,55,5.0,13.0,86,0.00,,,0.00,0.000000,,2013-02-09 07:42:00,
2013-02-09 01:52:00,46.0,42.0,-100.00,NE,55,5.0,13.0,86,0.00,,,0.00,0.000000,,2013-02-09 07:52:00,
2013-02-09 02:01:00,46.0,42.0,-100.00,NE,55,5.0,13.0,86,0.00,,,0.00,0.000000,,2013-02-09 08:01:00,
2013-02-09 02:32:00,45.0,41.0,-100.00,ENE,57,7.0,11.0,85,0.00,,,0.00,0.000000,,2013-02-09 08:32:00,
2013-02-09 02:42:00,45.0,41.0,-100.00,ENE,57,7.0,11.0,85,0.00,,,0.00,0.000000,,2013-02-09 08:42:00,
2013-02-09 02:52:00,45.0,41.0,-100.00,ENE,57,7.0,11.0,85,0.00,,,0.00,0.000000,,2013-02-09 08:52:00,
2013-02-09 03:03:00,45.0,41.0,-100.00,ENE,57,7.0,11.0,85,0.00,,,0.00,0.000000,,2013-02-09 09:03:00,
2013-02-09 03:32:00,42.0,40.0,-100.00,NE,51,5.0,9.0,92,0.00,,,0.00,0.000000,,2013-02-09 09:32:00,
2013-02-09 03:42:00,42.0,40.0,-100.00,NE,51,5.0,9.0,92,0.00,,,0.00,0.000000,,2013-02-09 09:42:00,
2013-02-09 03:52:00,42.0,40.0,-100.00,NE,51,5.0,9.0,92,0.00,,,0.00,0.000000,,2013-02-09 09:52:00,
2013-02-09 04:01:00,42.0,40.0,-100.00,NE,51,5.0,9.0,92,0.00,,,0.00,0.000000,,2013-02-09 10:01:00,
2013-02-09 04:32:00,41.0,39.0,-100.00,ENE,57,3.0,8.0,94,0.00,,,0.00,0.000000,,2013-02-09 10:32:00,
2013-02-09 04:42:00,41.0,39.0,-100.00,ENE,57,3.0,8.0,94,0.00,,,0.00,0.000000,,2013-02-09 10:42:00,
2013-02-09 04:52:00,41.0,39.0,-100.00,ENE,57,3.0,8.0,94,0.00,,,0.00,0.000000,,2013-02-09 10:52:00,
2013-02-09 05:01:00,41.0,39.0,-100.00,ENE,57,3.0,8.0,94,0.00,,,0.00,0.000000,,2013-02-09 11:01:00,
2013-02-09 05:32:00,40.0,39.0,-100.00,ENE,62,5.0,10.0,95,0.00,,,0.00,0.000000,,2013-02-09 11:32:00,
2013-02-09 05:42:00,40.0,39.0,-100.00,ENE,62,5.0,10.0,95,0.00,,,0.00,0.000000,,2013-02-09 11:42:00,
2013-02-09 05:52:00,40.0,39.0,-100.00,ENE,62,5.0,10.0,95,0.00,,,0.00,0.000000,,2013-02-09 11:52:00,
2013-02-09 06:02:00,40.0,39.0,-100.00,ENE,62,5.0,10.0,95,0.00,,,0.00,0.000000,,2013-02-09 12:02:00,
2013-02-09 06:32:00,40.0,39.0,-100.00,ENE,72,5.0,10.0,95,0.00,,,0.00,0.000000,,2013-02-09 12:32:00,
2013-02-09 06:42:00,40.0,39.0,-100.00,ENE,72,5.0,10.0,95,0.00,,,0.00,0.000000,,2013-02-09 12:42:00,
2013-02-09 06:52:00,40.0,39.0,-100.00,ENE,72,5.0,10.0,95,0.00,,,0.00,0.000000,,2013-02-09 12:52:00,
2013-02-09 07:02:00,40.0,39.0,-100.00,ENE,72,5.0,10.0,95,0.00,,,0.00,0.000000,,2013-02-09 13:02:00,
2013-02-09 07:32:00,39.0,38.0,-100.00,ENE,68,4.0,9.0,96,0.00,,,0.00,4.000000,,2013-02-09 13:32:00,
2013-02-09 07:42:00,39.0,38.0,-100.00,ENE,68,4.0,9.0,96,0.00,,,0.00,4.000000,,2013-02-09 13:42:00,
2013-02-09 07:52:00,39.0,38.0,-100.00,ENE,68,4.0,9.0,96,0.00,,,0.00,4.000000,,2013-02-09 13:52:00,
2013-02-09 08:01:00,39.0,38.0,-100.00,ENE,68,4.0,9.0,96,0.00,,,0.00,4.000000,,2013-02-09 14:01:00,
2013-02-09 08:32:00,42.0,39.0,-100.00,East,88,6.0,12.0,90,0.00,,,0.00,63.000000,,2013-02-09 14:32:00,
2013-02-09 08:42:00,42.0,39.0,-100.00,East,88,6.0,12.0,90,0.00,,,0.00,63.000000,,2013-02-09 14:42:00,
2013-02-09 08:52:00,42.0,39.0,-100.00,East,88,6.0,12.0,90,0.00,,,0.00,63.000000,,2013-02-09 14:52:00,
2013-02-09 09:02:00,42.0,39.0,-100.00,East,88,6.0,12.0,90,0.00,,,0.00,63.000000,,2013-02-09 15:02:00,
2013-02-09 09:32:00,48.0,41.0,-100.00,ESE,105,3.0,10.0,77,0.00,,,0.00,242.000000,,2013-02-09 15:32:00,
2013-02-09 09:42:00,48.0,41.0,-100.00,ESE,105,3.0,10.0,77,0.00,,,0.00,242.000000,,2013-02-09 15:42:00,
2013-02-09 09:52:00,48.0,41.0,-100.00,ESE,105,3.0,10.0,77,0.00,,,0.00,242.000000,,2013-02-09 15:52:00,
2013-02-09 10:01:00,48.0,41.0,-100.00,ESE,105,3.0,10.0,77,0.00,,,0.00,242.000000,,2013-02-09 16:01:00,
2013-02-09 10:32:00,50.0,41.0,-100.00,SE,134,3.0,11.0,71,0.00,,,0.00,269.000000,,2013-02-09 16:32:00,
2013-02-09 10:42:00,50.0,41.0,-100.00,SE,134,3.0,11.0,71,0.00,,,0.00,269.000000,,2013-02-09 16:42:00,
2013-02-09 10:52:00,50.0,41.0,-100.00,SE,134,3.0,11.0,71,0.00,,,0.00,269.000000,,2013-02-09 16:52:00,
2013-02-09 11:01:00,50.0,41.0,-100.00,SE,134,3.0,11.0,71,0.00,,,0.00,269.000000,,2013-02-09 17:01:00,
2013-02-09 11:32:00,53.0,44.0,-100.00,East,88,2.0,8.0,71,0.00,,,0.00,265.000000,,2013-02-09 17:32:00,
2013-02-09 11:42:00,53.0,44.0,-100.00,East,88,2.0,8.0,71,0.00,,,0.00,265.000000,,2013-02-09 17:42:00,
2013-02-09 11:52:00,53.0,44.0,-100.00,East,88,2.0,8.0,71,0.00,,,0.00,265.000000,,2013-02-09 17:52:00,
2013-02-09 12:02:00,53.0,44.0,-100.00,East,88,2.0,8.0,71,0.00,,,0.00,265.000000,,2013-02-09 18:02:00,
2013-02-09 12:32:00,56.0,46.0,-100.00,ESE,114,3.0,8.0,68,0.00,,,0.00,325.000000,,2013-02-09 18:32:00,
2013-02-09 12:42:00,56.0,46.0,-100.00,ESE,114,3.0,8.0,68,0.00,,,0.00,325.000000,,2013-02-09 18:42:00,
2013-02-09 12:52:00,56.0,46.0,-100.00,ESE,114,3.0,8.0,68,0.00,,,0.00,325.000000,,2013-02-09 18:52:00,
2013-02-09 13:01:00,56.0,46.0,-100.00,ESE,114,3.0,8.0,68,0.00,,,0.00,325.000000,,2013-02-09 19:01:00,
2013-02-09 13:32:00,59.0,48.0,-100.00,ENE,63,3.0,8.0,66,0.00,,,0.00,423.000000,,2013-02-09 19:32:00,
2013-02-09 13:42:00,59.0,48.0,-100.00,ENE,63,3.0,8.0,66,0.00,,,0.00,423.000000,,2013-02-09 19:42:00,
2013-02-09 13:52:00,59.0,48.0,-100.00,ENE,63,3.0,8.0,66,0.00,,,0.00,423.000000,,2013-02-09 19:52:00,
2013-02-09 14:01:00,59.0,48.0,-100.00,ENE,63,3.0,8.0,66,0.00,,,0.00,423.000000,,2013-02-09 20:01:00,
2013-02-09 14:32:00,62.0,49.0,-100.00,East,88,5.0,10.0,62,0.00,,,0.00,476.000000,,2013-02-09 20:32:00,
2013-02-09 14:42:00,62.0,49.0,-100.00,East,88,5.0,10.0,62,0.00,,,0.00,476.000000,,2013-02-09 20:42:00,
2013-02-09 14:52:00,62.0,49.0,-100.00,East,88,5.0,10.0,62,0.00,,,0.00,476.000000,,2013-02-09 20:52:00,
2013-02-09 15:02:00,62.0,49.0,-100.00,East,88,5.0,10.0,62,0.00,,,0.00,476.000000,,2013-02-09 21:02:00,
2013-02-09 15:32:00,68.0,52.0,-100.00,SSE,159,3.0,9.0,56,0.00,,,0.00,459.000000,,2013-02-09 21:32:00,
2013-02-09 15:42:00,68.0,52.0,-100.00,SSE,159,3.0,9.0,56,0.00,,,0.00,459.000000,,2013-02-09 21:42:00,
2013-02-09 15:52:00,68.0,52.0,-100.00,SSE,159,3.0,9.0,56,0.00,,,0.00,459.000000,,2013-02-09 21:52:00,
2013-02-09 16:01:00,68.0,52.0,-100.00,SSE,159,3.0,9.0,56,0.00,,,0.00,459.000000,,2013-02-09 22:01:00,
2013-02-09 16:32:00,67.0,52.0,-100.00,SSE,164,2.0,8.0,58,0.00,,,-99.99,291.000000,,2013-02-09 22:32:00,
2013-02-09 16:42:00,67.0,52.0,-100.00,SSE,164,2.0,8.0,58,0.00,,,-99.99,291.000000,,2013-02-09 22:42:00,
2013-02-09 16:52:00,67.0,52.0,-100.00,SSE,164,2.0,8.0,58,0.00,,,-99.99,291.000000,,2013-02-09 22:52:00,
2013-02-09 17:01:00,67.0,52.0,-100.00,SSE,164,2.0,8.0,58,0.00,,,-99.99,291.000000,,2013-02-09 23:01:00,
2013-02-09 17:32:00,63.0,54.0,-100.00,SE,133,0.0,5.0,72,0.00,,,0.00,79.000000,,2013-02-09 23:32:00,
2013-02-09 17:42:00,63.0,54.0,-100.00,SE,133,0.0,5.0,72,0.00,,,0.00,79.000000,,2013-02-09 23:42:00,
2013-02-09 17:52:00,63.0,54.0,-100.00,SE,133,0.0,5.0,72,0.00,,,0.00,79.000000,,2013-02-09 23:52:00,
2013-02-09 18:02:00,63.0,54.0,-100.00,SE,133,0.0,5.0,72,0.00,,,0.00,79.000000,,2013-02-10 00:02:00,
2013-02-09 18:32:00,61.0,55.0,-100.00,SSE,149,0.0,2.0,80,0.00,,,0.00,7.000000,,2013-02-10 00:32:00,
2013-02-09 18:42:00,61.0,55.0,-100.00,SSE,149,0.0,2.0,80,0.00,,,0.00,7.000000,,2013-02-10 00:42:00,
2013-02-09 18:52:00,61.0,55.0,-100.00,SSE,149,0.0,2.0,80,0.00,,,0.00,7.000000,,2013-02-10 00:52:00,
2013-02-09 19:01:00,61.0,55.0,-100.00,SSE,149,0.0,2.0,80,0.00,,,0.00,7.000000,,2013-02-10 01:01:00,
2013-02-09 20:32:00,57.0,54.0,-100.00,SSE,154,0.0,4.0,90,-99.99,,,0.00,0.000000,,2013-02-10 02:32:00,
2013-02-09 20:42:00,57.0,54.0,-100.00,SSE,154,0.0,4.0,90,-99.99,,,0.00,0.000000,,2013-02-10 02:42:00,
2013-02-09 20:52:00,57.0,54.0,-100.00,SSE,154,0.0,4.0,90,-99.99,,,0.00,0.000000,,2013-02-10 02:52:00,
2013-02-09 21:02:00,57.0,54.0,-100.00,SSE,154,0.0,4.0,90,-99.99,,,0.00,0.000000,,2013-02-10 03:02:00,
2013-02-09 21:32:00,55.0,53.0,-100.00,SSW,192,2.0,5.0,94,0.00,,,0.00,0.000000,,2013-02-10 03:32:00,
2013-02-09 21:42:00,55.0,53.0,-100.00,SSW,192,2.0,5.0,94,0.00,,,0.00,0.000000,,2013-02-10 03:42:00,
2013-02-09 21:52:00,55.0,53.0,-100.00,SSW,192,2.0,5.0,94,0.00,,,0.00,0.000000,,2013-02-10 03:52:00,
2013-02-09 22:01:00,55.0,53.0,-100.00,SSW,192,2.0,5.0,94,0.00,,,0.00,0.000000,,2013-02-10 04:01:00,
2013-02-09 22:32:00,55.0,54.0,-100.00,ESE,113,2.0,4.0,96,0.00,,,0.00,0.000000,,2013-02-10 04:32:00,
2013-02-09 22:42:00,55.0,54.0,-100.00,ESE,113,2.0,4.0,96,0.00,,,0.00,0.000000,,2013-02-10 04:42:00,
2013-02-09 22:52:00,55.0,54.0,-100.00,ESE,113,2.0,4.0,96,0.00,,,0.00,0.000000,,2013-02-10 04:52:00,
2013-02-09 23:01:00,55.0,54.0,-100.00,ESE,113,2.0,4.0,96,0.00,,,0.00,0.000000,,2013-02-10 05:01:00,
2013-02-09 23:32:00,53.0,52.0,-100.00,SE,137,1.0,5.0,98,0.00,,,0.00,0.000000,,2013-02-10 05:32:00,
2013-02-09 23:42:00,53.0,52.0,-100.00,SE,137,1.0,5.0,98,0.00,,,0.00,0.000000,,2013-02-10 05:42:00,
2013-02-09 23:52:00,53.0,52.0,-100.00,SE,137,1.0,5.0,98,0.00,,,0.00,0.000000,,2013-02-10 05:52:00,